sensor_id;sensor_type;location;lat;lon;timestamp;temperature;humidity
25450;DHT22;13371;52.080;5.624;2023-02-15T00:00:14;6.80;95.90
25450;DHT22;13371;52.080;5.624;2023-02-15T00:02:40;6.80;95.80
25450;DHT22;13371;52.080;5.624;2023-02-15T00:05:06;6.80;95.80
25450;DHT22;13371;52.080;5.624;2023-02-15T00:07:32;6.80;95.70
25450;DHT22;13371;52.080;5.624;2023-02-15T00:09:58;6.90;95.50
25450;DHT22;13371;52.080;5.624;2023-02-15T00:12:23;6.80;95.60
25450;DHT22;13371;52.080;5.624;2023-02-15T00:14:49;6.80;95.40
25450;DHT22;13371;52.080;5.624;2023-02-15T00:17:15;6.80;95.50
25450;DHT22;13371;52.080;5.624;2023-02-15T00:19:40;6.80;95.50
25450;DHT22;13371;52.080;5.624;2023-02-15T00:22:06;6.70;95.50
25450;DHT22;13371;52.080;5.624;2023-02-15T00:24:32;6.70;95.40
25450;DHT22;13371;52.080;5.624;2023-02-15T00:26:58;6.70;95.40
25450;DHT22;13371;52.080;5.624;2023-02-15T00:29:24;6.60;95.50
25450;DHT22;13371;52.080;5.624;2023-02-15T00:31:50;6.30;95.90
25450;DHT22;13371;52.080;5.624;2023-02-15T00:34:21;6.30;96.60
25450;DHT22;13371;52.080;5.624;2023-02-15T00:36:47;6.50;96.00
25450;DHT22;13371;52.080;5.624;2023-02-15T00:39:14;6.60;95.70
25450;DHT22;13371;52.080;5.624;2023-02-15T00:41:40;6.60;95.60
25450;DHT22;13371;52.080;5.624;2023-02-15T00:44:06;6.50;95.70
25450;DHT22;13371;52.080;5.624;2023-02-15T00:46:32;6.50;95.60
25450;DHT22;13371;52.080;5.624;2023-02-15T00:48:58;6.50;95.40
25450;DHT22;13371;52.080;5.624;2023-02-15T00:51:24;6.60;95.50
25450;DHT22;13371;52.080;5.624;2023-02-15T00:53:49;6.50;95.40
25450;DHT22;13371;52.080;5.624;2023-02-15T00:56:15;6.50;95.50
25450;DHT22;13371;52.080;5.624;2023-02-15T00:58:41;6.40;95.50
25450;DHT22;13371;52.080;5.624;2023-02-15T01:01:10;6.40;95.30
25450;DHT22;13371;52.080;5.624;2023-02-15T01:03:36;6.50;95.40
25450;DHT22;13371;52.080;5.624;2023-02-15T01:06:02;6.40;95.50
25450;DHT22;13371;52.080;5.624;2023-02-15T01:08:28;6.20;95.50
25450;DHT22;13371;52.080;5.624;2023-02-15T01:10:54;6.20;95.60
25450;DHT22;13371;52.080;5.624;2023-02-15T01:13:20;6.20;95.80
25450;DHT22;13371;52.080;5.624;2023-02-15T01:15:51;6.10;96.00
25450;DHT22;13371;52.080;5.624;2023-02-15T01:18:17;6.20;95.90
25450;DHT22;13371;52.080;5.624;2023-02-15T01:20:43;6.00;96.50
25450;DHT22;13371;52.080;5.624;2023-02-15T01:23:09;6.10;96.10
25450;DHT22;13371;52.080;5.624;2023-02-15T01:25:35;6.10;96.00
25450;DHT22;13371;52.080;5.624;2023-02-15T01:28:02;6.10;95.90
25450;DHT22;13371;52.080;5.624;2023-02-15T01:30:28;6.00;95.90
25450;DHT22;13371;52.080;5.624;2023-02-15T01:32:53;5.90;96.30
25450;DHT22;13371;52.080;5.624;2023-02-15T01:35:19;6.00;96.10
25450;DHT22;13371;52.080;5.624;2023-02-15T01:37:45;6.10;96.20
25450;DHT22;13371;52.080;5.624;2023-02-15T01:40:15;6.10;96.00
25450;DHT22;13371;52.080;5.624;2023-02-15T01:42:41;6.10;95.70
25450;DHT22;13371;52.080;5.624;2023-02-15T01:45:26;6.10;95.70
25450;DHT22;13371;52.080;5.624;2023-02-15T01:48:12;6.10;95.70
25450;DHT22;13371;52.080;5.624;2023-02-15T01:50:58;6.00;95.80
25450;DHT22;13371;52.080;5.624;2023-02-15T01:53:35;5.90;95.90
25450;DHT22;13371;52.080;5.624;2023-02-15T01:56:16;6.10;96.00
25450;DHT22;13371;52.080;5.624;2023-02-15T01:58:43;6.00;95.80
25450;DHT22;13371;52.080;5.624;2023-02-15T02:01:09;6.00;95.70
25450;DHT22;13371;52.080;5.624;2023-02-15T02:06:24;5.90;96.20
25450;DHT22;13371;52.080;5.624;2023-02-15T02:08:49;5.90;96.10
25450;DHT22;13371;52.080;5.624;2023-02-15T02:11:15;5.80;96.60
25450;DHT22;13371;52.080;5.624;2023-02-15T02:13:43;5.90;96.40
25450;DHT22;13371;52.080;5.624;2023-02-15T02:33:34;4.90;99.20
25450;DHT22;13371;52.080;5.624;2023-02-15T02:41:44;5.20;98.70
25450;DHT22;13371;52.080;5.624;2023-02-15T02:44:15;5.40;98.50
25450;DHT22;13371;52.080;5.624;2023-02-15T02:46:54;5.50;98.20
25450;DHT22;13371;52.080;5.624;2023-02-15T02:49:36;5.40;98.00
25450;DHT22;13371;52.080;5.624;2023-02-15T02:52:05;5.10;98.60
25450;DHT22;13371;52.080;5.624;2023-02-15T02:54:34;4.60;99.70
25450;DHT22;13371;52.080;5.624;2023-02-15T02:57:04;4.70;99.90
25450;DHT22;13371;52.080;5.624;2023-02-15T02:59:34;4.90;99.90
25450;DHT22;13371;52.080;5.624;2023-02-15T03:02:07;5.20;99.20
25450;DHT22;13371;52.080;5.624;2023-02-15T03:04:40;5.50;98.60
25450;DHT22;13371;52.080;5.624;2023-02-15T03:07:13;5.40;98.10
25450;DHT22;13371;52.080;5.624;2023-02-15T03:09:45;5.20;98.80
25450;DHT22;13371;52.080;5.624;2023-02-15T03:12:18;4.70;99.90
25450;DHT22;13371;52.080;5.624;2023-02-15T03:14:48;4.60;99.90
25450;DHT22;13371;52.080;5.624;2023-02-15T03:17:15;5.00;99.80
25450;DHT22;13371;52.080;5.624;2023-02-15T03:19:45;5.00;99.50
25450;DHT22;13371;52.080;5.624;2023-02-15T03:22:20;5.20;99.00
25450;DHT22;13371;52.080;5.624;2023-02-15T03:24:56;4.90;99.20
25450;DHT22;13371;52.080;5.624;2023-02-15T03:27:31;4.60;99.90
25450;DHT22;13371;52.080;5.624;2023-02-15T03:29:58;4.50;99.90
25450;DHT22;13371;52.080;5.624;2023-02-15T03:32:26;4.40;99.90
25450;DHT22;13371;52.080;5.624;2023-02-15T03:34:52;4.40;99.90
25450;DHT22;13371;52.080;5.624;2023-02-15T03:40:13;4.20;99.90
25450;DHT22;13371;52.080;5.624;2023-02-15T03:45:52;4.80;99.90
25450;DHT22;13371;52.080;5.624;2023-02-15T03:48:28;4.90;99.90
25450;DHT22;13371;52.080;5.624;2023-02-15T03:50:58;5.00;99.80
25450;DHT22;13371;52.080;5.624;2023-02-15T03:54:14;5.20;99.60
25450;DHT22;13371;52.080;5.624;2023-02-15T03:57:04;5.20;99.40
25450;DHT22;13371;52.080;5.624;2023-02-15T03:59:48;5.40;98.80
25450;DHT22;13371;52.080;5.624;2023-02-15T04:02:43;5.40;98.10
25450;DHT22;13371;52.080;5.624;2023-02-15T04:05:09;5.00;98.80
25450;DHT22;13371;52.080;5.624;2023-02-15T04:07:35;5.00;99.30
25450;DHT22;13371;52.080;5.624;2023-02-15T04:10:01;5.30;98.50
25450;DHT22;13371;52.080;5.624;2023-02-15T04:12:45;5.40;98.10
25450;DHT22;13371;52.080;5.624;2023-02-15T04:15:13;5.40;97.80
25450;DHT22;13371;52.080;5.624;2023-02-15T04:17:57;5.40;97.70
25450;DHT22;13371;52.080;5.624;2023-02-15T04:20:23;5.10;98.40
25450;DHT22;13371;52.080;5.624;2023-02-15T04:23:07;4.90;98.60
25450;DHT22;13371;52.080;5.624;2023-02-15T04:25:52;4.50;99.90
25450;DHT22;13371;52.080;5.624;2023-02-15T04:28:17;4.60;99.90
25450;DHT22;13371;52.080;5.624;2023-02-15T04:30:43;5.00;99.30
25450;DHT22;13371;52.080;5.624;2023-02-15T04:33:08;5.00;98.90
25450;DHT22;13371;52.080;5.624;2023-02-15T04:35:34;5.20;98.70
25450;DHT22;13371;52.080;5.624;2023-02-15T04:38:00;5.20;98.30
25450;DHT22;13371;52.080;5.624;2023-02-15T04:40:25;5.20;98.40
25450;DHT22;13371;52.080;5.624;2023-02-15T04:42:51;5.30;98.20
25450;DHT22;13371;52.080;5.624;2023-02-15T04:45:17;5.20;98.30
25450;DHT22;13371;52.080;5.624;2023-02-15T04:47:42;5.00;98.60
25450;DHT22;13371;52.080;5.624;2023-02-15T04:50:08;4.80;99.40
25450;DHT22;13371;52.080;5.624;2023-02-15T04:52:34;5.00;99.00
25450;DHT22;13371;52.080;5.624;2023-02-15T04:55:00;5.20;98.70
25450;DHT22;13371;52.080;5.624;2023-02-15T04:57:25;5.20;98.40
25450;DHT22;13371;52.080;5.624;2023-02-15T04:59:51;5.10;98.70
25450;DHT22;13371;52.080;5.624;2023-02-15T05:02:16;5.00;98.50
25450;DHT22;13371;52.080;5.624;2023-02-15T05:04:42;4.60;99.30
25450;DHT22;13371;52.080;5.624;2023-02-15T05:07:07;4.60;99.70
25450;DHT22;13371;52.080;5.624;2023-02-15T05:09:33;4.70;99.70
25450;DHT22;13371;52.080;5.624;2023-02-15T05:11:59;4.90;99.30
25450;DHT22;13371;52.080;5.624;2023-02-15T05:14:24;5.00;98.80
25450;DHT22;13371;52.080;5.624;2023-02-15T05:16:50;5.00;98.70
25450;DHT22;13371;52.080;5.624;2023-02-15T05:19:15;5.00;98.30
25450;DHT22;13371;52.080;5.624;2023-02-15T05:21:41;4.80;99.00
25450;DHT22;13371;52.080;5.624;2023-02-15T05:24:07;4.90;98.90
25450;DHT22;13371;52.080;5.624;2023-02-15T05:26:52;4.80;99.10
25450;DHT22;13371;52.080;5.624;2023-02-15T05:29:36;4.90;98.90
25450;DHT22;13371;52.080;5.624;2023-02-15T05:32:02;4.90;98.90
25450;DHT22;13371;52.080;5.624;2023-02-15T05:34:29;5.00;98.60
25450;DHT22;13371;52.080;5.624;2023-02-15T05:36:55;5.00;98.30
25450;DHT22;13371;52.080;5.624;2023-02-15T05:39:20;5.20;98.40
25450;DHT22;13371;52.080;5.624;2023-02-15T05:41:46;5.10;98.20
25450;DHT22;13371;52.080;5.624;2023-02-15T05:44:11;5.20;98.30
25450;DHT22;13371;52.080;5.624;2023-02-15T05:46:37;5.10;98.20
25450;DHT22;13371;52.080;5.624;2023-02-15T05:49:02;5.20;98.10
25450;DHT22;13371;52.080;5.624;2023-02-15T05:51:28;5.30;97.90
25450;DHT22;13371;52.080;5.624;2023-02-15T05:53:53;5.30;97.70
25450;DHT22;13371;52.080;5.624;2023-02-15T05:56:19;5.20;97.70
25450;DHT22;13371;52.080;5.624;2023-02-15T05:58:45;5.10;97.90
25450;DHT22;13371;52.080;5.624;2023-02-15T06:01:12;5.10;97.80
25450;DHT22;13371;52.080;5.624;2023-02-15T06:03:38;5.10;98.00
25450;DHT22;13371;52.080;5.624;2023-02-15T06:06:04;5.10;97.70
25450;DHT22;13371;52.080;5.624;2023-02-15T06:08:34;4.80;97.90
25450;DHT22;13371;52.080;5.624;2023-02-15T06:11:00;4.50;98.10
25450;DHT22;13371;52.080;5.624;2023-02-15T06:13:25;4.40;99.50
25450;DHT22;13371;52.080;5.624;2023-02-15T06:15:51;4.40;99.10
25450;DHT22;13371;52.080;5.624;2023-02-15T06:18:16;4.00;99.00
25450;DHT22;13371;52.080;5.624;2023-02-15T06:20:42;3.50;99.90
25450;DHT22;13371;52.080;5.624;2023-02-15T06:23:10;3.40;99.90
25450;DHT22;13371;52.080;5.624;2023-02-15T06:25:35;3.50;99.90
25450;DHT22;13371;52.080;5.624;2023-02-15T06:28:01;3.70;99.90
25450;DHT22;13371;52.080;5.624;2023-02-15T06:30:26;3.90;99.90
25450;DHT22;13371;52.080;5.624;2023-02-15T06:32:52;4.10;99.90
25450;DHT22;13371;52.080;5.624;2023-02-15T06:35:17;4.00;99.60
25450;DHT22;13371;52.080;5.624;2023-02-15T06:37:45;3.90;99.90
25450;DHT22;13371;52.080;5.624;2023-02-15T06:40:12;3.70;99.90
25450;DHT22;13371;52.080;5.624;2023-02-15T06:42:37;4.00;99.90
25450;DHT22;13371;52.080;5.624;2023-02-15T06:45:04;4.00;99.90
25450;DHT22;13371;52.080;5.624;2023-02-15T06:47:30;4.10;99.90
25450;DHT22;13371;52.080;5.624;2023-02-15T06:49:55;4.00;99.90
25450;DHT22;13371;52.080;5.624;2023-02-15T06:52:21;4.10;99.90
25450;DHT22;13371;52.080;5.624;2023-02-15T06:54:46;4.10;99.90
25450;DHT22;13371;52.080;5.624;2023-02-15T06:57:12;4.00;99.90
25450;DHT22;13371;52.080;5.624;2023-02-15T06:59:37;4.10;99.90
25450;DHT22;13371;52.080;5.624;2023-02-15T07:02:03;3.90;99.90
25450;DHT22;13371;52.080;5.624;2023-02-15T07:04:29;3.80;99.90
25450;DHT22;13371;52.080;5.624;2023-02-15T07:06:55;3.90;99.90
25450;DHT22;13371;52.080;5.624;2023-02-15T07:09:21;3.90;99.90
25450;DHT22;13371;52.080;5.624;2023-02-15T07:11:47;4.20;99.90
25450;DHT22;13371;52.080;5.624;2023-02-15T07:14:31;3.70;99.90
25450;DHT22;13371;52.080;5.624;2023-02-15T07:16:57;3.50;99.90
25450;DHT22;13371;52.080;5.624;2023-02-15T07:19:22;3.20;99.90
25450;DHT22;13371;52.080;5.624;2023-02-15T07:21:48;3.70;99.90
25450;DHT22;13371;52.080;5.624;2023-02-15T07:24:14;3.80;99.90
25450;DHT22;13371;52.080;5.624;2023-02-15T07:26:39;4.00;99.90
25450;DHT22;13371;52.080;5.624;2023-02-15T07:29:05;4.20;99.90
25450;DHT22;13371;52.080;5.624;2023-02-15T07:31:30;4.30;99.90
25450;DHT22;13371;52.080;5.624;2023-02-15T07:33:56;4.10;99.90
25450;DHT22;13371;52.080;5.624;2023-02-15T07:36:22;4.40;99.90
25450;DHT22;13371;52.080;5.624;2023-02-15T07:38:47;4.60;99.90
25450;DHT22;13371;52.080;5.624;2023-02-15T07:41:15;4.30;99.90
25450;DHT22;13371;52.080;5.624;2023-02-15T07:43:42;4.10;99.90
25450;DHT22;13371;52.080;5.624;2023-02-15T07:46:11;4.30;99.90
25450;DHT22;13371;52.080;5.624;2023-02-15T07:48:38;4.50;99.90
25450;DHT22;13371;52.080;5.624;2023-02-15T07:51:06;5.00;99.90
25450;DHT22;13371;52.080;5.624;2023-02-15T07:53:32;5.50;99.90
25450;DHT22;13371;52.080;5.624;2023-02-15T07:55:59;6.00;99.90
25450;DHT22;13371;52.080;5.624;2023-02-15T07:58:25;6.10;99.90
25450;DHT22;13371;52.080;5.624;2023-02-15T08:01:10;6.90;99.90
25450;DHT22;13371;52.080;5.624;2023-02-15T08:03:36;7.30;99.40
25450;DHT22;13371;52.080;5.624;2023-02-15T08:06:02;7.80;97.40
25450;DHT22;13371;52.080;5.624;2023-02-15T08:08:27;7.90;96.60
25450;DHT22;13371;52.080;5.624;2023-02-15T08:13:49;7.70;97.20
25450;DHT22;13371;52.080;5.624;2023-02-15T08:16:41;7.30;97.70
25450;DHT22;13371;52.080;5.624;2023-02-15T08:19:17;8.40;96.20
25450;DHT22;13371;52.080;5.624;2023-02-15T08:21:47;8.90;96.10
25450;DHT22;13371;52.080;5.624;2023-02-15T08:24:17;9.70;94.10
25450;DHT22;13371;52.080;5.624;2023-02-15T08:26:43;9.80;93.20
25450;DHT22;13371;52.080;5.624;2023-02-15T08:29:12;10.30;92.60
25450;DHT22;13371;52.080;5.624;2023-02-15T08:31:38;9.90;93.00
25450;DHT22;13371;52.080;5.624;2023-02-15T08:34:06;9.50;93.60
25450;DHT22;13371;52.080;5.624;2023-02-15T08:36:32;9.90;93.40
25450;DHT22;13371;52.080;5.624;2023-02-15T08:38:59;10.10;92.50
25450;DHT22;13371;52.080;5.624;2023-02-15T08:41:29;10.50;92.50
25450;DHT22;13371;52.080;5.624;2023-02-15T08:43:57;10.60;92.10
25450;DHT22;13371;52.080;5.624;2023-02-15T08:46:26;11.10;91.80
25450;DHT22;13371;52.080;5.624;2023-02-15T08:48:51;11.10;91.10
25450;DHT22;13371;52.080;5.624;2023-02-15T08:51:23;11.40;91.50
25450;DHT22;13371;52.080;5.624;2023-02-15T08:53:52;11.90;90.50
25450;DHT22;13371;52.080;5.624;2023-02-15T08:56:20;11.40;90.40
25450;DHT22;13371;52.080;5.624;2023-02-15T08:58:46;11.10;90.50
25450;DHT22;13371;52.080;5.624;2023-02-15T09:01:14;10.30;91.90
25450;DHT22;13371;52.080;5.624;2023-02-15T09:03:44;10.30;92.80
25450;DHT22;13371;52.080;5.624;2023-02-15T09:06:10;9.80;92.90
25450;DHT22;13371;52.080;5.624;2023-02-15T09:08:36;9.70;94.00
25450;DHT22;13371;52.080;5.624;2023-02-15T09:11:14;10.20;93.20
25450;DHT22;13371;52.080;5.624;2023-02-15T09:13:48;10.60;92.60
25450;DHT22;13371;52.080;5.624;2023-02-15T09:16:13;10.30;92.50
25450;DHT22;13371;52.080;5.624;2023-02-15T09:18:42;10.20;93.60
25450;DHT22;13371;52.080;5.624;2023-02-15T09:21:11;10.80;93.60
25450;DHT22;13371;52.080;5.624;2023-02-15T09:23:39;11.00;92.50
25450;DHT22;13371;52.080;5.624;2023-02-15T09:26:07;11.10;92.00
25450;DHT22;13371;52.080;5.624;2023-02-15T09:28:33;11.30;92.20
25450;DHT22;13371;52.080;5.624;2023-02-15T09:31:16;10.80;92.00
25450;DHT22;13371;52.080;5.624;2023-02-15T09:33:43;10.30;92.80
25450;DHT22;13371;52.080;5.624;2023-02-15T09:36:24;9.90;93.10
25450;DHT22;13371;52.080;5.624;2023-02-15T09:38:58;9.70;94.20
25450;DHT22;13371;52.080;5.624;2023-02-15T09:44:47;9.90;94.10
25450;DHT22;13371;52.080;5.624;2023-02-15T09:53:26;10.20;93.60
25450;DHT22;13371;52.080;5.624;2023-02-15T10:07:12;9.90;93.90
25450;DHT22;13371;52.080;5.624;2023-02-15T10:14:56;10.50;94.20
25450;DHT22;13371;52.080;5.624;2023-02-15T10:25:46;10.60;93.70
25450;DHT22;13371;52.080;5.624;2023-02-15T10:28:23;11.20;93.30
25450;DHT22;13371;52.080;5.624;2023-02-15T10:30:54;11.40;92.40
25450;DHT22;13371;52.080;5.624;2023-02-15T10:33:38;11.60;91.70
25450;DHT22;13371;52.080;5.624;2023-02-15T10:38:59;11.90;91.40
25450;DHT22;13371;52.080;5.624;2023-02-15T10:41:57;11.30;91.80
25450;DHT22;13371;52.080;5.624;2023-02-15T10:47:41;12.80;91.50
25450;DHT22;13371;52.080;5.624;2023-02-15T10:50:27;13.10;90.00
25450;DHT22;13371;52.080;5.624;2023-02-15T10:56:01;12.60;89.00
25450;DHT22;13371;52.080;5.624;2023-02-15T10:58:58;12.80;90.40
25450;DHT22;13371;52.080;5.624;2023-02-15T11:04:23;12.60;90.80
25450;DHT22;13371;52.080;5.624;2023-02-15T11:06:56;12.50;91.10
25450;DHT22;13371;52.080;5.624;2023-02-15T11:09:27;12.60;90.40
25450;DHT22;13371;52.080;5.624;2023-02-15T11:11:56;12.80;90.60
25450;DHT22;13371;52.080;5.624;2023-02-15T11:17:06;12.60;90.70
25450;DHT22;13371;52.080;5.624;2023-02-15T11:19:39;12.60;89.70
25450;DHT22;13371;52.080;5.624;2023-02-15T11:22:10;12.60;90.50
25450;DHT22;13371;52.080;5.624;2023-02-15T11:24:41;12.50;90.70
25450;DHT22;13371;52.080;5.624;2023-02-15T11:27:26;12.80;90.30
25450;DHT22;13371;52.080;5.624;2023-02-15T11:30:01;13.30;90.00
25450;DHT22;13371;52.080;5.624;2023-02-15T11:32:37;13.10;88.80
25450;DHT22;13371;52.080;5.624;2023-02-15T11:37:45;13.20;90.10
25450;DHT22;13371;52.080;5.624;2023-02-15T11:40:22;13.50;89.10
25450;DHT22;13371;52.080;5.624;2023-02-15T11:42:49;13.60;87.50
25450;DHT22;13371;52.080;5.624;2023-02-15T11:45:19;13.60;88.50
25450;DHT22;13371;52.080;5.624;2023-02-15T11:47:46;13.50;88.90
25450;DHT22;13371;52.080;5.624;2023-02-15T11:50:17;13.50;89.90
25450;DHT22;13371;52.080;5.624;2023-02-15T11:52:47;13.50;90.10
25450;DHT22;13371;52.080;5.624;2023-02-15T11:55:19;13.10;89.20
25450;DHT22;13371;52.080;5.624;2023-02-15T11:58:01;13.20;90.40
25450;DHT22;13371;52.080;5.624;2023-02-15T12:00:38;13.10;90.50
25450;DHT22;13371;52.080;5.624;2023-02-15T12:03:21;13.40;89.30
25450;DHT22;13371;52.080;5.624;2023-02-15T12:05:52;13.40;89.20
25450;DHT22;13371;52.080;5.624;2023-02-15T12:08:22;12.00;92.00
25450;DHT22;13371;52.080;5.624;2023-02-15T12:10:58;12.30;91.60
25450;DHT22;13371;52.080;5.624;2023-02-15T12:13:25;12.70;91.30
25450;DHT22;13371;52.080;5.624;2023-02-15T12:15:56;12.70;91.00
25450;DHT22;13371;52.080;5.624;2023-02-15T12:18:37;13.20;91.20
25450;DHT22;13371;52.080;5.624;2023-02-15T12:21:29;12.50;91.50
25450;DHT22;13371;52.080;5.624;2023-02-15T12:24:03;12.60;91.60
25450;DHT22;13371;52.080;5.624;2023-02-15T12:26:32;13.20;91.00
25450;DHT22;13371;52.080;5.624;2023-02-15T12:29:21;12.20;91.00
25450;DHT22;13371;52.080;5.624;2023-02-15T12:31:51;11.90;93.10
25450;DHT22;13371;52.080;5.624;2023-02-15T12:34:32;12.50;92.30
25450;DHT22;13371;52.080;5.624;2023-02-15T12:37:14;13.10;91.40
25450;DHT22;13371;52.080;5.624;2023-02-15T12:39:51;13.70;90.50
25450;DHT22;13371;52.080;5.624;2023-02-15T12:42:17;13.60;90.50
25450;DHT22;13371;52.080;5.624;2023-02-15T12:44:58;13.30;90.30
25450;DHT22;13371;52.080;5.624;2023-02-15T12:47:24;13.50;90.90
25450;DHT22;13371;52.080;5.624;2023-02-15T12:50:14;14.00;90.30
25450;DHT22;13371;52.080;5.624;2023-02-15T12:52:48;14.10;88.80
25450;DHT22;13371;52.080;5.624;2023-02-15T12:55:19;14.20;89.60
25450;DHT22;13371;52.080;5.624;2023-02-15T12:57:45;14.40;87.60
25450;DHT22;13371;52.080;5.624;2023-02-15T13:02:47;14.00;90.00
25450;DHT22;13371;52.080;5.624;2023-02-15T13:05:34;14.10;88.10
25450;DHT22;13371;52.080;5.624;2023-02-15T13:08:08;13.90;90.00
25450;DHT22;13371;52.080;5.624;2023-02-15T13:10:39;13.80;90.60
25450;DHT22;13371;52.080;5.624;2023-02-15T13:13:18;14.00;90.20
25450;DHT22;13371;52.080;5.624;2023-02-15T13:15:49;14.20;90.20
25450;DHT22;13371;52.080;5.624;2023-02-15T13:18:19;14.30;89.20
25450;DHT22;13371;52.080;5.624;2023-02-15T13:20:49;14.20;88.30
25450;DHT22;13371;52.080;5.624;2023-02-15T13:23:27;14.00;87.90
25450;DHT22;13371;52.080;5.624;2023-02-15T13:26:03;13.80;88.80
25450;DHT22;13371;52.080;5.624;2023-02-15T13:28:51;14.00;89.70
25450;DHT22;13371;52.080;5.624;2023-02-15T13:31:20;14.00;88.90
25450;DHT22;13371;52.080;5.624;2023-02-15T13:33:53;13.90;88.70
25450;DHT22;13371;52.080;5.624;2023-02-15T13:44:54;13.80;89.30
25450;DHT22;13371;52.080;5.624;2023-02-15T13:47:44;13.80;89.40
25450;DHT22;13371;52.080;5.624;2023-02-15T13:50:47;13.70;89.60
25450;DHT22;13371;52.080;5.624;2023-02-15T13:53:45;14.10;90.30
25450;DHT22;13371;52.080;5.624;2023-02-15T13:59:36;14.10;88.50
25450;DHT22;13371;52.080;5.624;2023-02-15T14:05:15;14.10;88.70
25450;DHT22;13371;52.080;5.624;2023-02-15T14:10:38;14.50;88.00
25450;DHT22;13371;52.080;5.624;2023-02-15T14:13:38;14.40;88.30
25450;DHT22;13371;52.080;5.624;2023-02-15T14:21:54;14.20;89.20
25450;DHT22;13371;52.080;5.624;2023-02-15T14:32:01;14.40;88.80
25450;DHT22;13371;52.080;5.624;2023-02-15T14:37:10;14.50;88.30
25450;DHT22;13371;52.080;5.624;2023-02-15T14:45:39;14.40;88.20
25450;DHT22;13371;52.080;5.624;2023-02-15T14:50:42;14.20;88.50
25450;DHT22;13371;52.080;5.624;2023-02-15T15:01:52;14.30;88.10
25450;DHT22;13371;52.080;5.624;2023-02-15T15:07:04;15.00;87.80
25450;DHT22;13371;52.080;5.624;2023-02-15T15:09:36;14.90;86.90
25450;DHT22;13371;52.080;5.624;2023-02-15T15:14:46;15.10;86.70
25450;DHT22;13371;52.080;5.624;2023-02-15T15:22:40;14.50;88.30
25450;DHT22;13371;52.080;5.624;2023-02-15T15:28:02;14.70;86.50
25450;DHT22;13371;52.080;5.624;2023-02-15T15:35:33;14.40;88.00
25450;DHT22;13371;52.080;5.624;2023-02-15T15:49:27;14.80;87.10
25450;DHT22;13371;52.080;5.624;2023-02-15T15:51:54;14.70;87.10
25450;DHT22;13371;52.080;5.624;2023-02-15T15:54:23;14.70;86.80
25450;DHT22;13371;52.080;5.624;2023-02-15T15:56:58;14.50;87.70
25450;DHT22;13371;52.080;5.624;2023-02-15T15:59:32;14.70;87.30
25450;DHT22;13371;52.080;5.624;2023-02-15T16:02:06;14.80;87.10
25450;DHT22;13371;52.080;5.624;2023-02-15T16:04:34;14.80;86.70
25450;DHT22;13371;52.080;5.624;2023-02-15T16:10:04;14.60;87.00
25450;DHT22;13371;52.080;5.624;2023-02-15T16:12:33;14.70;87.30
25450;DHT22;13371;52.080;5.624;2023-02-15T16:15:04;14.90;86.80
25450;DHT22;13371;52.080;5.624;2023-02-15T16:17:31;14.90;86.80
25450;DHT22;13371;52.080;5.624;2023-02-15T16:20:14;14.80;86.40
25450;DHT22;13371;52.080;5.624;2023-02-15T16:22:42;14.90;86.60
25450;DHT22;13371;52.080;5.624;2023-02-15T16:27:50;14.70;86.50
25450;DHT22;13371;52.080;5.624;2023-02-15T16:30:31;14.80;86.10
25450;DHT22;13371;52.080;5.624;2023-02-15T16:35:32;14.70;86.50
25450;DHT22;13371;52.080;5.624;2023-02-15T16:37:58;14.80;86.50
25450;DHT22;13371;52.080;5.624;2023-02-15T16:42:57;14.60;86.70
25450;DHT22;13371;52.080;5.624;2023-02-15T16:45:26;14.60;86.80
25450;DHT22;13371;52.080;5.624;2023-02-15T16:47:56;14.60;86.90
25450;DHT22;13371;52.080;5.624;2023-02-15T16:50:34;14.50;86.80
25450;DHT22;13371;52.080;5.624;2023-02-15T16:53:03;14.50;87.10
25450;DHT22;13371;52.080;5.624;2023-02-15T16:55:37;14.40;87.80
25450;DHT22;13371;52.080;5.624;2023-02-15T16:58:05;14.40;87.10
25450;DHT22;13371;52.080;5.624;2023-02-15T17:00:35;14.40;87.40
25450;DHT22;13371;52.080;5.624;2023-02-15T17:05:44;14.20;87.90
25450;DHT22;13371;52.080;5.624;2023-02-15T17:11:14;14.00;88.10
25450;DHT22;13371;52.080;5.624;2023-02-15T17:19:15;13.80;89.00
25450;DHT22;13371;52.080;5.624;2023-02-15T17:21:46;13.90;88.60
25450;DHT22;13371;52.080;5.624;2023-02-15T17:24:31;13.80;88.80
25450;DHT22;13371;52.080;5.624;2023-02-15T17:27:02;13.70;89.30
25450;DHT22;13371;52.080;5.624;2023-02-15T17:29:39;13.60;89.60
25450;DHT22;13371;52.080;5.624;2023-02-15T17:32:12;13.60;89.40
25450;DHT22;13371;52.080;5.624;2023-02-15T17:34:56;13.50;90.00
25450;DHT22;13371;52.080;5.624;2023-02-15T17:37:43;13.40;89.90
25450;DHT22;13371;52.080;5.624;2023-02-15T17:40:25;13.30;90.30
25450;DHT22;13371;52.080;5.624;2023-02-15T17:42:51;13.30;90.60
25450;DHT22;13371;52.080;5.624;2023-02-15T17:45:17;13.00;90.40
25450;DHT22;13371;52.080;5.624;2023-02-15T17:47:43;12.80;90.90
25450;DHT22;13371;52.080;5.624;2023-02-15T17:50:25;12.80;91.10
25450;DHT22;13371;52.080;5.624;2023-02-15T17:52:52;12.60;91.20
25450;DHT22;13371;52.080;5.624;2023-02-15T17:55:20;12.60;91.40
25450;DHT22;13371;52.080;5.624;2023-02-15T17:58:13;12.70;91.20
25450;DHT22;13371;52.080;5.624;2023-02-15T18:00:45;12.60;91.30
25450;DHT22;13371;52.080;5.624;2023-02-15T18:03:43;12.60;91.20
25450;DHT22;13371;52.080;5.624;2023-02-15T18:06:27;12.60;91.20
25450;DHT22;13371;52.080;5.624;2023-02-15T18:09:17;12.80;90.90
25450;DHT22;13371;52.080;5.624;2023-02-15T18:12:03;12.70;90.90
25450;DHT22;13371;52.080;5.624;2023-02-15T18:14:38;12.70;90.90
25450;DHT22;13371;52.080;5.624;2023-02-15T18:17:03;12.70;91.00
25450;DHT22;13371;52.080;5.624;2023-02-15T18:19:30;12.70;90.80
25450;DHT22;13371;52.080;5.624;2023-02-15T18:21:56;12.70;90.70
25450;DHT22;13371;52.080;5.624;2023-02-15T18:24:24;12.70;90.80
25450;DHT22;13371;52.080;5.624;2023-02-15T18:26:51;12.70;91.00
25450;DHT22;13371;52.080;5.624;2023-02-15T18:29:17;12.70;90.80
25450;DHT22;13371;52.080;5.624;2023-02-15T18:31:44;12.80;90.60
25450;DHT22;13371;52.080;5.624;2023-02-15T18:34:29;12.70;90.50
25450;DHT22;13371;52.080;5.624;2023-02-15T18:36:57;12.60;90.70
25450;DHT22;13371;52.080;5.624;2023-02-15T18:40:04;12.60;90.90
25450;DHT22;13371;52.080;5.624;2023-02-15T18:42:33;12.50;90.90
25450;DHT22;13371;52.080;5.624;2023-02-15T18:45:21;12.40;91.10
25450;DHT22;13371;52.080;5.624;2023-02-15T18:47:49;12.20;91.30
25450;DHT22;13371;52.080;5.624;2023-02-15T18:50:18;12.30;91.20
25450;DHT22;13371;52.080;5.624;2023-02-15T18:52:48;12.30;91.10
25450;DHT22;13371;52.080;5.624;2023-02-15T18:57:48;12.20;91.00
25450;DHT22;13371;52.080;5.624;2023-02-15T19:00:24;12.00;91.10
25450;DHT22;13371;52.080;5.624;2023-02-15T19:02:50;12.10;91.30
25450;DHT22;13371;52.080;5.624;2023-02-15T19:05:16;11.90;91.40
25450;DHT22;13371;52.080;5.624;2023-02-15T19:07:45;11.80;91.60
25450;DHT22;13371;52.080;5.624;2023-02-15T19:10:24;11.80;91.50
25450;DHT22;13371;52.080;5.624;2023-02-15T19:12:53;11.90;91.40
25450;DHT22;13371;52.080;5.624;2023-02-15T19:15:24;11.90;91.30
25450;DHT22;13371;52.080;5.624;2023-02-15T19:17:50;11.60;91.80